sensor_id;sensor_type;location;lat;lon;timestamp;pressure;altitude;pressure_sealevel;temperature
69785;BMP280;14177;51.520;6.764;2023-05-28T00:00:03;101720.91;;;14.97
69785;BMP280;14177;51.520;6.764;2023-05-28T00:02:54;101715.97;;;14.88
69785;BMP280;14177;51.520;6.764;2023-05-28T00:06:35;101718.19;;;14.74
69785;BMP280;14177;51.520;6.764;2023-05-28T00:10:13;101718.50;;;14.65
69785;BMP280;14177;51.520;6.764;2023-05-28T00:12:46;101716.13;;;14.57
69785;BMP280;14177;51.520;6.764;2023-05-28T00:15:19;101713.78;;;14.50
69785;BMP280;14177;51.520;6.764;2023-05-28T00:17:52;101713.00;;;14.47
69785;BMP280;14177;51.520;6.764;2023-05-28T00:20:21;101711.38;;;14.44
69785;BMP280;14177;51.520;6.764;2023-05-28T00:22:51;101722.75;;;14.42
69785;BMP280;14177;51.520;6.764;2023-05-28T00:25:38;101724.63;;;14.38
69785;BMP280;14177;51.520;6.764;2023-05-28T00:28:15;101718.63;;;14.35
69785;BMP280;14177;51.520;6.764;2023-05-28T00:30:55;101723.00;;;14.34
69785;BMP280;14177;51.520;6.764;2023-05-28T00:33:28;101722.19;;;14.32
69785;BMP280;14177;51.520;6.764;2023-05-28T00:35:58;101714.47;;;14.29
69785;BMP280;14177;51.520;6.764;2023-05-28T00:38:28;101718.06;;;14.25
69785;BMP280;14177;51.520;6.764;2023-05-28T00:41:03;101714.75;;;14.20
69785;BMP280;14177;51.520;6.764;2023-05-28T00:43:47;101715.75;;;14.16
69785;BMP280;14177;51.520;6.764;2023-05-28T00:46:25;101704.50;;;14.13
69785;BMP280;14177;51.520;6.764;2023-05-28T00:49:04;101700.13;;;14.13
69785;BMP280;14177;51.520;6.764;2023-05-28T00:51:37;101703.63;;;14.12
69785;BMP280;14177;51.520;6.764;2023-05-28T00:54:18;101700.13;;;14.15
69785;BMP280;14177;51.520;6.764;2023-05-28T00:56:53;101704.47;;;14.14
69785;BMP280;14177;51.520;6.764;2023-05-28T00:59:38;101704.47;;;14.14
69785;BMP280;14177;51.520;6.764;2023-05-28T01:02:29;101701.94;;;14.11
69785;BMP280;14177;51.520;6.764;2023-05-28T01:05:33;101696.75;;;14.10
69785;BMP280;14177;51.520;6.764;2023-05-28T01:08:26;101716.88;;;14.06
69785;BMP280;14177;51.520;6.764;2023-05-28T01:11:19;101717.84;;;14.04
69785;BMP280;14177;51.520;6.764;2023-05-28T01:13:51;101717.06;;;14.00
69785;BMP280;14177;51.520;6.764;2023-05-28T01:16:21;101717.25;;;13.94
69785;BMP280;14177;51.520;6.764;2023-05-28T01:18:55;101715.72;;;13.87
69785;BMP280;14177;51.520;6.764;2023-05-28T01:21:32;101706.28;;;13.83
69785;BMP280;14177;51.520;6.764;2023-05-28T01:24:16;101709.81;;;13.82
69785;BMP280;14177;51.520;6.764;2023-05-28T01:27:16;101706.38;;;13.80
69785;BMP280;14177;51.520;6.764;2023-05-28T01:34:24;101695.66;;;13.60
69785;BMP280;14177;51.520;6.764;2023-05-28T01:37:07;101706.19;;;13.57
69785;BMP280;14177;51.520;6.764;2023-05-28T01:39:57;101702.94;;;13.49
69785;BMP280;14177;51.520;6.764;2023-05-28T01:42:50;101699.59;;;13.44
69785;BMP280;14177;51.520;6.764;2023-05-28T01:46:20;101696.34;;;13.36
69785;BMP280;14177;51.520;6.764;2023-05-28T01:50:08;101691.28;;;13.31
69785;BMP280;14177;51.520;6.764;2023-05-28T01:52:49;101688.78;;;13.28
69785;BMP280;14177;51.520;6.764;2023-05-28T01:55:27;101689.00;;;13.20
69785;BMP280;14177;51.520;6.764;2023-05-28T01:58:23;101697.00;;;13.13
69785;BMP280;14177;51.520;6.764;2023-05-28T02:01:31;101691.09;;;13.08
69785;BMP280;14177;51.520;6.764;2023-05-28T02:04:17;101689.38;;;13.07
69785;BMP280;14177;51.520;6.764;2023-05-28T02:07:04;101687.66;;;13.06
69785;BMP280;14177;51.520;6.764;2023-05-28T02:09:36;101696.50;;;13.00
69785;BMP280;14177;51.520;6.764;2023-05-28T02:12:10;101683.63;;;12.94
69785;BMP280;14177;51.520;6.764;2023-05-28T02:14:43;101683.75;;;12.88
69785;BMP280;14177;51.520;6.764;2023-05-28T02:17:23;101690.91;;;12.80
69785;BMP280;14177;51.520;6.764;2023-05-28T02:20:01;101688.44;;;12.76
69785;BMP280;14177;51.520;6.764;2023-05-28T02:22:36;101685.91;;;12.73
69785;BMP280;14177;51.520;6.764;2023-05-28T02:25:11;101678.22;;;12.67
69785;BMP280;14177;51.520;6.764;2023-05-28T02:27:49;101685.38;;;12.59
69785;BMP280;14177;51.520;6.764;2023-05-28T02:30:33;101699.47;;;12.52
69785;BMP280;14177;51.520;6.764;2023-05-28T02:33:20;101695.34;;;12.42
69785;BMP280;14177;51.520;6.764;2023-05-28T02:35:57;101690.31;;;12.36
69785;BMP280;14177;51.520;6.764;2023-05-28T02:39:32;101704.25;;;12.35
69785;BMP280;14177;51.520;6.764;2023-05-28T02:42:41;101696.44;;;12.33
69785;BMP280;14177;51.520;6.764;2023-05-28T02:45:39;101706.84;;;12.35
69785;BMP280;14177;51.520;6.764;2023-05-28T02:48:17;101703.34;;;12.36
69785;BMP280;14177;51.520;6.764;2023-05-28T02:50:47;101707.63;;;12.38
69785;BMP280;14177;51.520;6.764;2023-05-28T02:54:03;101709.47;;;12.35
69785;BMP280;14177;51.520;6.764;2023-05-28T02:56:44;101717.34;;;12.32
69785;BMP280;14177;51.520;6.764;2023-05-28T02:59:21;101715.69;;;12.28
69785;BMP280;14177;51.520;6.764;2023-05-28T03:02:04;101718.47;;;12.20
69785;BMP280;14177;51.520;6.764;2023-05-28T03:04:42;101724.69;;;12.15
69785;BMP280;14177;51.520;6.764;2023-05-28T03:07:26;101725.66;;;12.09
69785;BMP280;14177;51.520;6.764;2023-05-28T03:10:32;101730.09;;;12.06
69785;BMP280;14177;51.520;6.764;2023-05-28T03:13:08;101735.38;;;12.03
69785;BMP280;14177;51.520;6.764;2023-05-28T03:15:37;101722.41;;;12.00
69785;BMP280;14177;51.520;6.764;2023-05-28T03:18:04;101722.41;;;12.02
69785;BMP280;14177;51.520;6.764;2023-05-28T03:20:36;101719.78;;;12.02
69785;BMP280;14177;51.520;6.764;2023-05-28T03:23:03;101719.69;;;12.05
69785;BMP280;14177;51.520;6.764;2023-05-28T03:25:39;101742.22;;;12.07
69785;BMP280;14177;51.520;6.764;2023-05-28T03:28:08;101719.69;;;12.05
69785;BMP280;14177;51.520;6.764;2023-05-28T03:30:47;101724.94;;;12.03
69785;BMP280;14177;51.520;6.764;2023-05-28T03:33:15;101714.66;;;11.99
69785;BMP280;14177;51.520;6.764;2023-05-28T03:35:42;101714.66;;;11.99
69785;BMP280;14177;51.520;6.764;2023-05-28T03:38:09;101711.97;;;12.02
69785;BMP280;14177;51.520;6.764;2023-05-28T03:40:36;101707.59;;;12.02
69785;BMP280;14177;51.520;6.764;2023-05-28T03:43:04;101698.97;;;12.00
69785;BMP280;14177;51.520;6.764;2023-05-28T03:45:32;101707.66;;;12.01
69785;BMP280;14177;51.520;6.764;2023-05-28T03:48:01;101704.31;;;11.96
69785;BMP280;14177;51.520;6.764;2023-05-28T03:50:31;101710.41;;;11.95
69785;BMP280;14177;51.520;6.764;2023-05-28T03:52:58;101710.34;;;11.96
69785;BMP280;14177;51.520;6.764;2023-05-28T03:55:25;101712.06;;;11.97
69785;BMP280;14177;51.520;6.764;2023-05-28T03:57:52;101712.94;;;11.98
69785;BMP280;14177;51.520;6.764;2023-05-28T04:00:19;101716.44;;;11.97
69785;BMP280;14177;51.520;6.764;2023-05-28T04:02:47;101719.13;;;11.92
69785;BMP280;14177;51.520;6.764;2023-05-28T04:05:16;101723.56;;;11.89
69785;BMP280;14177;51.520;6.764;2023-05-28T04:07:43;101724.44;;;11.88
69785;BMP280;14177;51.520;6.764;2023-05-28T04:10:10;101723.50;;;11.90
69785;BMP280;14177;51.520;6.764;2023-05-28T04:12:37;101726.09;;;11.90
69785;BMP280;14177;51.520;6.764;2023-05-28T04:15:05;101723.41;;;11.95
69785;BMP280;14177;51.520;6.764;2023-05-28T04:17:34;101709.38;;;12.00
69785;BMP280;14177;51.520;6.764;2023-05-28T04:20:01;101714.47;;;12.05
69785;BMP280;14177;51.520;6.764;2023-05-28T04:22:31;101720.50;;;12.08
69785;BMP280;14177;51.520;6.764;2023-05-28T04:24:58;101723.94;;;12.08
69785;BMP280;14177;51.520;6.764;2023-05-28T04:27:25;101715.22;;;12.11
69785;BMP280;14177;51.520;6.764;2023-05-28T04:29:53;101722.97;;;12.12
69785;BMP280;14177;51.520;6.764;2023-05-28T04:32:24;101730.72;;;12.17
69785;BMP280;14177;51.520;6.764;2023-05-28T04:34:51;101739.28;;;12.22
69785;BMP280;14177;51.520;6.764;2023-05-28T04:37:20;101727.97;;;12.23
69785;BMP280;14177;51.520;6.764;2023-05-28T04:39:49;101720.03;;;12.27
69785;BMP280;14177;51.520;6.764;2023-05-28T04:42:18;101718.13;;;12.35
69785;BMP280;14177;51.520;6.764;2023-05-28T04:44:45;101722.31;;;12.41
69785;BMP280;14177;51.520;6.764;2023-05-28T04:47:12;101715.16;;;12.49
69785;BMP280;14177;51.520;6.764;2023-05-28T04:49:40;101714.13;;;12.56
69785;BMP280;14177;51.520;6.764;2023-05-28T04:52:07;101719.19;;;12.63
69785;BMP280;14177;51.520;6.764;2023-05-28T04:54:36;101725.13;;;12.68
69785;BMP280;14177;51.520;6.764;2023-05-28T04:57:05;101729.25;;;12.77
69785;BMP280;14177;51.520;6.764;2023-05-28T04:59:33;101736.03;;;12.84
69785;BMP280;14177;51.520;6.764;2023-05-28T05:02:01;101730.66;;;12.90
69785;BMP280;14177;51.520;6.764;2023-05-28T05:04:29;101737.38;;;13.00
69785;BMP280;14177;51.520;6.764;2023-05-28T05:06:57;101739.03;;;13.04
69785;BMP280;14177;51.520;6.764;2023-05-28T05:09:24;101736.16;;;13.13
69785;BMP280;14177;51.520;6.764;2023-05-28T05:11:51;101735.00;;;13.23
69785;BMP280;14177;51.520;6.764;2023-05-28T05:14:18;101743.50;;;13.31
69785;BMP280;14177;51.520;6.764;2023-05-28T05:16:47;101740.72;;;13.36
69785;BMP280;14177;51.520;6.764;2023-05-28T05:19:15;101748.34;;;13.44
69785;BMP280;14177;51.520;6.764;2023-05-28T05:21:42;101744.78;;;13.46
69785;BMP280;14177;51.520;6.764;2023-05-28T05:24:09;101749.84;;;13.52
69785;BMP280;14177;51.520;6.764;2023-05-28T05:26:37;101748.81;;;13.58
69785;BMP280;14177;51.520;6.764;2023-05-28T05:29:04;101751.22;;;13.65
69785;BMP280;14177;51.520;6.764;2023-05-28T05:31:31;101754.50;;;13.72
69785;BMP280;14177;51.520;6.764;2023-05-28T05:33:58;101749.00;;;13.82
69785;BMP280;14177;51.520;6.764;2023-05-28T05:36:43;101750.41;;;13.92
69785;BMP280;14177;51.520;6.764;2023-05-28T05:39:49;101738.69;;;14.05
69785;BMP280;14177;51.520;6.764;2023-05-28T05:42:35;101741.06;;;14.14
69785;BMP280;14177;51.520;6.764;2023-05-28T05:45:04;101747.72;;;14.24
69785;BMP280;14177;51.520;6.764;2023-05-28T05:47:35;101735.41;;;14.28
69785;BMP280;14177;51.520;6.764;2023-05-28T05:50:03;101749.91;;;14.38
69785;BMP280;14177;51.520;6.764;2023-05-28T05:52:31;101747.97;;;14.44
69785;BMP280;14177;51.520;6.764;2023-05-28T05:54:59;101748.69;;;14.49
69785;BMP280;14177;51.520;6.764;2023-05-28T05:57:26;101754.44;;;14.58
69785;BMP280;14177;51.520;6.764;2023-05-28T05:59:54;101747.16;;;14.68
69785;BMP280;14177;51.520;6.764;2023-05-28T06:02:21;101743.44;;;14.75
69785;BMP280;14177;51.520;6.764;2023-05-28T06:04:50;101744.84;;;14.85
69785;BMP280;14177;51.520;6.764;2023-05-28T06:07:41;101748.00;;;14.94
69785;BMP280;14177;51.520;6.764;2023-05-28T06:10:14;101743.44;;;15.01
69785;BMP280;14177;51.520;6.764;2023-05-28T06:12:41;101747.34;;;15.14
69785;BMP280;14177;51.520;6.764;2023-05-28T06:15:10;101741.78;;;15.23
69785;BMP280;14177;51.520;6.764;2023-05-28T06:17:38;101742.16;;;15.37
69785;BMP280;14177;51.520;6.764;2023-05-28T06:20:07;101742.59;;;15.49
69785;BMP280;14177;51.520;6.764;2023-05-28T06:22:35;101743.91;;;15.61
69785;BMP280;14177;51.520;6.764;2023-05-28T06:25:03;101741.97;;;15.66
69785;BMP280;14177;51.520;6.764;2023-05-28T06:27:31;101745.28;;;15.71
69785;BMP280;14177;51.520;6.764;2023-05-28T06:29:59;101743.94;;;15.83
69785;BMP280;14177;51.520;6.764;2023-05-28T06:32:26;101744.28;;;15.97
69785;BMP280;14177;51.520;6.764;2023-05-28T06:34:53;101745.38;;;16.13
69785;BMP280;14177;51.520;6.764;2023-05-28T06:37:21;101743.88;;;16.29
69785;BMP280;14177;51.520;6.764;2023-05-28T06:39:48;101736.59;;;16.37
69785;BMP280;14177;51.520;6.764;2023-05-28T06:42:15;101743.19;;;16.47
69785;BMP280;14177;51.520;6.764;2023-05-28T06:44:58;101744.28;;;16.63
69785;BMP280;14177;51.520;6.764;2023-05-28T06:47:26;101740.88;;;16.81
69785;BMP280;14177;51.520;6.764;2023-05-28T06:49:55;101745.34;;;16.99
69785;BMP280;14177;51.520;6.764;2023-05-28T06:52:24;101747.47;;;17.11
69785;BMP280;14177;51.520;6.764;2023-05-28T06:54:51;101743.41;;;17.24
69785;BMP280;14177;51.520;6.764;2023-05-28T06:57:20;101735.22;;;17.31
69785;BMP280;14177;51.520;6.764;2023-05-28T06:59:49;101744.47;;;17.40
69785;BMP280;14177;51.520;6.764;2023-05-28T07:02:31;101742.94;;;17.54
69785;BMP280;14177;51.520;6.764;2023-05-28T07:05:17;101750.06;;;17.71
69785;BMP280;14177;51.520;6.764;2023-05-28T07:07:46;101752.91;;;17.85
69785;BMP280;14177;51.520;6.764;2023-05-28T07:10:13;101748.53;;;18.04
69785;BMP280;14177;51.520;6.764;2023-05-28T07:12:42;101759.88;;;18.23
69785;BMP280;14177;51.520;6.764;2023-05-28T07:15:10;101757.47;;;18.36
69785;BMP280;14177;51.520;6.764;2023-05-28T07:17:37;101754.34;;;18.47
69785;BMP280;14177;51.520;6.764;2023-05-28T07:20:05;101761.72;;;18.57
69785;BMP280;14177;51.520;6.764;2023-05-28T07:22:49;101759.28;;;18.71
69785;BMP280;14177;51.520;6.764;2023-05-28T07:25:16;101755.28;;;18.81
69785;BMP280;14177;51.520;6.764;2023-05-28T07:27:44;101746.13;;;18.88
69785;BMP280;14177;51.520;6.764;2023-05-28T07:30:17;101755.72;;;19.06
69785;BMP280;14177;51.520;6.764;2023-05-28T07:32:44;101766.28;;;19.23
69785;BMP280;14177;51.520;6.764;2023-05-28T07:35:12;101762.88;;;19.38
69785;BMP280;14177;51.520;6.764;2023-05-28T07:37:39;101760.44;;;19.51
69785;BMP280;14177;51.520;6.764;2023-05-28T07:40:07;101762.03;;;19.70
69785;BMP280;14177;51.520;6.764;2023-05-28T07:42:35;101755.78;;;19.88
69785;BMP280;14177;51.520;6.764;2023-05-28T07:45:05;101753.28;;;20.02
69785;BMP280;14177;51.520;6.764;2023-05-28T07:47:33;101749.81;;;20.17
69785;BMP280;14177;51.520;6.764;2023-05-28T07:50:10;101760.19;;;20.35
69785;BMP280;14177;51.520;6.764;2023-05-28T07:53:00;101742.44;;;20.53
69785;BMP280;14177;51.520;6.764;2023-05-28T07:55:28;101747.53;;;20.71
69785;BMP280;14177;51.520;6.764;2023-05-28T07:57:55;101757.91;;;20.89
69785;BMP280;14177;51.520;6.764;2023-05-28T08:00:27;101755.00;;;20.94
69785;BMP280;14177;51.520;6.764;2023-05-28T08:02:59;101753.44;;;21.05
69785;BMP280;14177;51.520;6.764;2023-05-28T08:05:37;101749.50;;;21.26
69785;BMP280;14177;51.520;6.764;2023-05-28T08:08:04;101752.19;;;21.54
69785;BMP280;14177;51.520;6.764;2023-05-28T08:10:32;101764.72;;;21.80
69785;BMP280;14177;51.520;6.764;2023-05-28T08:12:59;101751.06;;;22.00
69785;BMP280;14177;51.520;6.764;2023-05-28T08:15:27;101751.53;;;22.20
69785;BMP280;14177;51.520;6.764;2023-05-28T08:17:56;101757.06;;;22.44
69785;BMP280;14177;51.520;6.764;2023-05-28T08:20:24;101747.63;;;22.66
69785;BMP280;14177;51.520;6.764;2023-05-28T08:22:56;101741.09;;;22.84
69785;BMP280;14177;51.520;6.764;2023-05-28T08:25:24;101739.47;;;23.08
69785;BMP280;14177;51.520;6.764;2023-05-28T08:27:58;101741.94;;;23.36
69785;BMP280;14177;51.520;6.764;2023-05-28T08:30:25;101743.56;;;23.51
69785;BMP280;14177;51.520;6.764;2023-05-28T08:32:59;101737.69;;;23.58
69785;BMP280;14177;51.520;6.764;2023-05-28T08:35:26;101733.44;;;23.68
69785;BMP280;14177;51.520;6.764;2023-05-28T08:37:55;101720.84;;;23.84
69785;BMP280;14177;51.520;6.764;2023-05-28T08:40:36;101718.06;;;23.98
69785;BMP280;14177;51.520;6.764;2023-05-28T08:43:05;101722.66;;;24.07
69785;BMP280;14177;51.520;6.764;2023-05-28T08:45:37;101713.28;;;24.27
69785;BMP280;14177;51.520;6.764;2023-05-28T08:48:06;101707.03;;;24.51
69785;BMP280;14177;51.520;6.764;2023-05-28T08:50:40;101714.16;;;24.74
69785;BMP280;14177;51.520;6.764;2023-05-28T08:53:26;101713.38;;;24.95
69785;BMP280;14177;51.520;6.764;2023-05-28T08:55:58;101703.91;;;25.15
69785;BMP280;14177;51.520;6.764;2023-05-28T08:58:27;101696.94;;;25.36
69785;BMP280;14177;51.520;6.764;2023-05-28T09:00:55;101710.59;;;25.53
69785;BMP280;14177;51.520;6.764;2023-05-28T09:03:58;101700.69;;;25.66
69785;BMP280;14177;51.520;6.764;2023-05-28T09:06:31;101694.19;;;25.81
69785;BMP280;14177;51.520;6.764;2023-05-28T09:09:00;101697.03;;;26.00
69785;BMP280;14177;51.520;6.764;2023-05-28T09:11:39;101698.00;;;25.99
69785;BMP280;14177;51.520;6.764;2023-05-28T09:14:12;101690.91;;;25.89
69785;BMP280;14177;51.520;6.764;2023-05-28T09:16:42;101692.25;;;25.83
69785;BMP280;14177;51.520;6.764;2023-05-28T09:19:15;101688.84;;;25.81
69785;BMP280;14177;51.520;6.764;2023-05-28T09:21:57;101685.69;;;25.87
69785;BMP280;14177;51.520;6.764;2023-05-28T09:24:34;101685.78;;;26.07
69785;BMP280;14177;51.520;6.764;2023-05-28T09:27:21;101681.00;;;26.33
69785;BMP280;14177;51.520;6.764;2023-05-28T09:29:53;101682.00;;;26.63
69785;BMP280;14177;51.520;6.764;2023-05-28T09:32:37;101679.28;;;26.95
69785;BMP280;14177;51.520;6.764;2023-05-28T09:35:16;101681.69;;;27.18
69785;BMP280;14177;51.520;6.764;2023-05-28T09:38:26;101681.13;;;27.44
69785;BMP280;14177;51.520;6.764;2023-05-28T09:45:24;101669.59;;;27.74
69785;BMP280;14177;51.520;6.764;2023-05-28T09:48:06;101673.25;;;27.73
69785;BMP280;14177;51.520;6.764;2023-05-28T09:50:41;101669.34;;;27.77
69785;BMP280;14177;51.520;6.764;2023-05-28T09:54:09;101681.88;;;27.86
69785;BMP280;14177;51.520;6.764;2023-05-28T09:57:33;101661.97;;;28.09
69785;BMP280;14177;51.520;6.764;2023-05-28T10:00:05;101668.09;;;28.30
69785;BMP280;14177;51.520;6.764;2023-05-28T10:03:09;101668.22;;;28.47
69785;BMP280;14177;51.520;6.764;2023-05-28T10:05:43;101664.41;;;28.50
69785;BMP280;14177;51.520;6.764;2023-05-28T10:08:13;101660.91;;;28.58
69785;BMP280;14177;51.520;6.764;2023-05-28T10:10:46;101673.00;;;28.62
69785;BMP280;14177;51.520;6.764;2023-05-28T10:13:16;101661.59;;;28.60
69785;BMP280;14177;51.520;6.764;2023-05-28T10:15:45;101666.94;;;28.79
69785;BMP280;14177;51.520;6.764;2023-05-28T10:18:13;101667.50;;;28.83
69785;BMP280;14177;51.520;6.764;2023-05-28T10:20:42;101666.53;;;28.93
69785;BMP280;14177;51.520;6.764;2023-05-28T10:23:10;101666.09;;;29.07
69785;BMP280;14177;51.520;6.764;2023-05-28T10:25:38;101668.88;;;29.15
69785;BMP280;14177;51.520;6.764;2023-05-28T10:28:05;101667.28;;;29.32
69785;BMP280;14177;51.520;6.764;2023-05-28T10:30:35;101657.53;;;29.50
69785;BMP280;14177;51.520;6.764;2023-05-28T10:33:08;101658.69;;;29.28
69785;BMP280;14177;51.520;6.764;2023-05-28T10:35:50;101666.31;;;29.23
69785;BMP280;14177;51.520;6.764;2023-05-28T10:38:17;101658.16;;;29.15
69785;BMP280;14177;51.520;6.764;2023-05-28T10:40:46;101660.09;;;29.32
69785;BMP280;14177;51.520;6.764;2023-05-28T10:49:14;101652.50;;;30.18
69785;BMP280;14177;51.520;6.764;2023-05-28T10:51:57;101655.03;;;30.37
69785;BMP280;14177;51.520;6.764;2023-05-28T10:54:40;101651.03;;;30.23
69785;BMP280;14177;51.520;6.764;2023-05-28T10:57:17;101656.78;;;30.11
69785;BMP280;14177;51.520;6.764;2023-05-28T11:00:06;101651.09;;;29.87
69785;BMP280;14177;51.520;6.764;2023-05-28T11:02:37;101647.56;;;29.69
69785;BMP280;14177;51.520;6.764;2023-05-28T11:05:05;101648.34;;;29.52
69785;BMP280;14177;51.520;6.764;2023-05-28T11:07:41;101643.47;;;29.48
69785;BMP280;14177;51.520;6.764;2023-05-28T11:10:11;101643.78;;;29.26
69785;BMP280;14177;51.520;6.764;2023-05-28T11:12:42;101658.16;;;29.15
69785;BMP280;14177;51.520;6.764;2023-05-28T11:15:12;101657.41;;;29.32
69785;BMP280;14177;51.520;6.764;2023-05-28T11:17:47;101651.72;;;29.81
69785;BMP280;14177;51.520;6.764;2023-05-28T11:20:25;101647.75;;;30.29
69785;BMP280;14177;51.520;6.764;2023-05-28T11:22:55;101640.09;;;30.52
69785;BMP280;14177;51.520;6.764;2023-05-28T11:25:23;101639.94;;;30.71
69785;BMP280;14177;51.520;6.764;2023-05-28T11:27:54;101643.84;;;30.76
69785;BMP280;14177;51.520;6.764;2023-05-28T11:30:24;101649.78;;;30.88
69785;BMP280;14177;51.520;6.764;2023-05-28T11:32:53;101652.41;;;31.05
69785;BMP280;14177;51.520;6.764;2023-05-28T11:35:21;101640.94;;;31.13
69785;BMP280;14177;51.520;6.764;2023-05-28T11:37:48;101650.09;;;31.35
69785;BMP280;14177;51.520;6.764;2023-05-28T11:40:15;101639.94;;;31.47
69785;BMP280;14177;51.520;6.764;2023-05-28T11:42:44;101642.63;;;31.47
69785;BMP280;14177;51.520;6.764;2023-05-28T11:45:12;101645.00;;;31.50
69785;BMP280;14177;51.520;6.764;2023-05-28T11:47:40;101641.41;;;31.41
69785;BMP280;14177;51.520;6.764;2023-05-28T11:50:15;101642.09;;;31.43
69785;BMP280;14177;51.520;6.764;2023-05-28T11:52:43;101639.66;;;31.58
69785;BMP280;14177;51.520;6.764;2023-05-28T11:55:11;101638.63;;;31.51
69785;BMP280;14177;51.520;6.764;2023-05-28T11:57:39;101642.09;;;31.43
69785;BMP280;14177;51.520;6.764;2023-05-28T12:00:16;101637.66;;;31.60
69785;BMP280;14177;51.520;6.764;2023-05-28T12:02:52;101636.56;;;31.78
69785;BMP280;14177;51.520;6.764;2023-05-28T12:05:20;101632.41;;;31.92
69785;BMP280;14177;51.520;6.764;2023-05-28T12:07:52;101630.59;;;32.00
69785;BMP280;14177;51.520;6.764;2023-05-28T12:10:26;101624.69;;;31.97
69785;BMP280;14177;51.520;6.764;2023-05-28T12:12:57;101613.47;;;32.09
69785;BMP280;14177;51.520;6.764;2023-05-28T12:15:28;101626.63;;;32.20
69785;BMP280;14177;51.520;6.764;2023-05-28T12:17:58;101627.13;;;32.16
69785;BMP280;14177;51.520;6.764;2023-05-28T12:20:39;101623.72;;;32.06
69785;BMP280;14177;51.520;6.764;2023-05-28T12:23:10;101620.53;;;32.02
69785;BMP280;14177;51.520;6.764;2023-05-28T12:25:49;101617.47;;;31.89
69785;BMP280;14177;51.520;6.764;2023-05-28T12:28:21;101625.16;;;31.76
69785;BMP280;14177;51.520;6.764;2023-05-28T12:30:52;101627.84;;;31.76
69785;BMP280;14177;51.520;6.764;2023-05-28T12:33:22;101625.16;;;31.76
69785;BMP280;14177;51.520;6.764;2023-05-28T12:35:50;101617.91;;;31.77
69785;BMP280;14177;51.520;6.764;2023-05-28T12:38:18;101616.72;;;31.63
69785;BMP280;14177;51.520;6.764;2023-05-28T12:40:46;101617.06;;;31.68
69785;BMP280;14177;51.520;6.764;2023-05-28T12:43:14;101609.72;;;31.78
69785;BMP280;14177;51.520;6.764;2023-05-28T12:45:41;101616.72;;;31.63
69785;BMP280;14177;51.520;6.764;2023-05-28T12:48:08;101622.75;;;31.65
69785;BMP280;14177;51.520;6.764;2023-05-28T12:50:36;101613.56;;;31.42
69785;BMP280;14177;51.520;6.764;2023-05-28T12:53:03;101619.63;;;31.44
69785;BMP280;14177;51.520;6.764;2023-05-28T12:55:32;101612.53;;;31.61
69785;BMP280;14177;51.520;6.764;2023-05-28T12:57:59;101611.75;;;31.84
69785;BMP280;14177;51.520;6.764;2023-05-28T13:00:26;101606.72;;;31.89
69785;BMP280;14177;51.520;6.764;2023-05-28T13:02:53;101606.41;;;32.00
69785;BMP280;14177;51.520;6.764;2023-05-28T13:05:21;101603.09;;;32.30
69785;BMP280;14177;51.520;6.764;2023-05-28T13:07:49;101598.75;;;32.45
69785;BMP280;14177;51.520;6.764;2023-05-28T13:10:16;101602.75;;;32.25
69785;BMP280;14177;51.520;6.764;2023-05-28T13:12:43;101604.09;;;32.13
69785;BMP280;14177;51.520;6.764;2023-05-28T13:15:10;101593.69;;;32.26
69785;BMP280;14177;51.520;6.764;2023-05-28T13:17:38;101590.69;;;32.45
69785;BMP280;14177;51.520;6.764;2023-05-28T13:20:06;101595.19;;;32.52
69785;BMP280;14177;51.520;6.764;2023-05-28T13:22:37;101594.41;;;32.68
69785;BMP280;14177;51.520;6.764;2023-05-28T13:25:06;101598.38;;;32.88
69785;BMP280;14177;51.520;6.764;2023-05-28T13:27:34;101594.72;;;32.73
69785;BMP280;14177;51.520;6.764;2023-05-28T13:30:02;101588.00;;;32.69
69785;BMP280;14177;51.520;6.764;2023-05-28T13:32:30;101592.66;;;32.83
69785;BMP280;14177;51.520;6.764;2023-05-28T13:34:57;101594.66;;;32.97
69785;BMP280;14177;51.520;6.764;2023-05-28T13:37:24;101590.94;;;33.14
69785;BMP280;14177;51.520;6.764;2023-05-28T13:39:53;101588.06;;;33.23
69785;BMP280;14177;51.520;6.764;2023-05-28T13:42:20;101590.59;;;33.17
69785;BMP280;14177;51.520;6.764;2023-05-28T13:44:48;101581.00;;;33.14
69785;BMP280;14177;51.520;6.764;2023-05-28T13:47:16;101586.91;;;33.02
69785;BMP280;14177;51.520;6.764;2023-05-28T13:49:44;101583.25;;;32.87
69785;BMP280;14177;51.520;6.764;2023-05-28T13:52:11;101572.34;;;32.88
69785;BMP280;14177;51.520;6.764;2023-05-28T13:54:38;101574.84;;;32.90
69785;BMP280;14177;51.520;6.764;2023-05-28T13:57:08;101578.72;;;32.87
69785;BMP280;14177;51.520;6.764;2023-05-28T13:59:35;101576.34;;;32.92
69785;BMP280;14177;51.520;6.764;2023-05-28T14:02:03;101573.13;;;33.05
69785;BMP280;14177;51.520;6.764;2023-05-28T14:04:30;101566.94;;;32.96
69785;BMP280;14177;51.520;6.764;2023-05-28T14:06:57;101566.06;;;32.96
69785;BMP280;14177;51.520;6.764;2023-05-28T14:09:24;101570.28;;;32.98
69785;BMP280;14177;51.520;6.764;2023-05-28T14:11:51;101555.97;;;33.06
69785;BMP280;14177;51.520;6.764;2023-05-28T14:14:22;101557.81;;;33.05
69785;BMP280;14177;51.520;6.764;2023-05-28T14:16:50;101570.31;;;32.90
69785;BMP280;14177;51.520;6.764;2023-05-28T14:19:17;101560.78;;;32.72
69785;BMP280;14177;51.520;6.764;2023-05-28T14:21:45;101557.75;;;32.43
69785;BMP280;14177;51.520;6.764;2023-05-28T14:24:12;101553.38;;;32.34
69785;BMP280;14177;51.520;6.764;2023-05-28T14:26:39;101543.28;;;32.36
69785;BMP280;14177;51.520;6.764;2023-05-28T14:29:06;101548.66;;;32.36
69785;BMP280;14177;51.520;6.764;2023-05-28T14:31:33;101552.38;;;32.35
69785;BMP280;14177;51.520;6.764;2023-05-28T14:34:00;101549.53;;;32.29
69785;BMP280;14177;51.520;6.764;2023-05-28T14:36:27;101542.81;;;32.25
69785;BMP280;14177;51.520;6.764;2023-05-28T14:38:54;101541.47;;;32.21
69785;BMP280;14177;51.520;6.764;2023-05-28T14:41:21;101544.31;;;32.27
69785;BMP280;14177;51.520;6.764;2023-05-28T14:43:48;101550.00;;;32.16
69785;BMP280;14177;51.520;6.764;2023-05-28T14:46:15;101549.66;;;32.03
69785;BMP280;14177;51.520;6.764;2023-05-28T14:48:42;101549.28;;;31.82